CheckWX is a tool to help pilots better visualize weather data.  It is not intended as a substitute for an official pre-flight weather briefing.

01:15:02 UTC

RPLC TAF
Clark International Airport
Angeles City, Philippines
TAF RPLC 192300Z 2000/2106 33006KT 8000 SCT020 BKN300 TX34/2006Z TN25/2021Z TEMPO 2000/2006 23008KT 5000 TS -SHRA FEW015CB SCT020 BKN100

Aug-20@
00:00 UTC

Aug-20 @ 00:00 UTC

Aug-21@
06:00 UTC

Aug-21 @ 06:00 UTC

TAF RPLC 192300Z 2000/2106 33006KT 8000 SCT020 BKN300 TX34/2006Z TN25/2021Z
Wind
  • 330° at 6 KTS
Cloud Levels
  • Scattered at 2,000' AGL
  • Broken at 30,000' AGL

Aug-20@
00:00 UTC

Aug-20 @ 00:00 UTC

Aug-20@
06:00 UTC

Aug-20 @ 06:00 UTC

TEMPO 2000/2006 23008KT 5000 TS -SHRA FEW015CB SCT020 BKN100

Temporary

Temporary Changes expected for less than half the time period

Wind
  • 230° at 8 KTS
Conditions
Thunderstorm, Light Rain
Cloud Levels
  • Few at 1,500' AGL
  • Scattered at 2,000' AGL
  • Broken at 10,000' AGL